Depesze METAR z lotnisk oddalonych od Rybnika do 200 kilometrów

LKMT - Ostrava/Mosnov, Czech Republic
Distance from station: SSW 55km
Updated: Thu, 23/11/2017 11:30 CET
Clear
Clear
 Wind from WSW
Wind: WSW 15 km/h
Temperature: 9°C
Wind Chill: 7°C
Dew Point: 5°C
Humidity: 76%
Barometer: 1014 hPa
Summary: Clear
Visibility: greater than 10 km
2017/11/23 10:30 LKMT 231030Z 25008KT CAVOK 09/05 Q1014 NOSIG
EPKT - Katowice/Pyrzowi, Poland
Distance from station: NE 58km
Updated: Thu, 23/11/2017 11:30 CET
Clear
Clear
 Wind from SSW
Wind: SSW 13 km/h
Temperature: 10°C
Wind Chill: 8°C
Dew Point: 5°C
Humidity: 71%
Barometer: 1013 hPa
Summary: Clear
Visibility: greater than 10 km
2017/11/23 10:30 EPKT 231030Z 21007KT CAVOK 10/05 Q1013
 
EPKK - Krakow/Balice, Poland
Distance from station: E 91km
Updated: Thu, 23/11/2017 11:30 CET
Clear
Clear
 Wind from NE
Wind: NE 9 km/h
Temperature: 8°C
Wind Chill: 6°C
Dew Point: 6°C
Humidity: 87%
Barometer: 1013 hPa
Summary: Clear
Visibility: greater than 10 km
2017/11/23 10:30 EPKK 231030Z 04005KT CAVOK 08/06 Q1013
LZZI - Zilina, Slovakia
Distance from station: S 95km
Updated: Thu, 23/11/2017 11:30 CET
Fog, Overcast
Fog, Overcast
 Wind from E
Wind: E 6 km/h
Temperature: 3°C
Dew Point: 3°C
Humidity: 100%
Barometer: 1016 hPa
Summary: Fog
Clouds: Overcast
Visibility: 1 km
Cloud details: Overcast 61 m
2017/11/23 10:30 LZZI 231030Z 09003KT 040V130 0800 R06/1600D FG OVC002 03/03 Q1016
 
LKKU - Kunovice, Czech Republic
Distance from station: SW 139km
Updated: Thu, 23/11/2017 11:05 CET
Partly Cloudy
Partly Cloudy
 Wind from varies
Wind: varies 4 km/h
Temperature: 6°C
Dew Point: 6°C
Humidity: 100%
Barometer: 1014 hPa
Clouds: Partly Cloudy
Visibility: 9 km
2017/11/23 10:05 LKKU 231005Z VRB02KT 9000 NSC 06/06 Q1014
EPWR - Wroclaw/Strachow, Poland
Distance from station: NW 163km
Updated: Thu, 23/11/2017 11:30 CET
Clear
Clear
 Wind from SSE
Wind: SSE 11 km/h
Temperature: 12°C
Dew Point: 6°C
Humidity: 67%
Barometer: 1011 hPa
Summary: Clear
Visibility: greater than 10 km
2017/11/23 10:30 EPWR 231030Z 16006KT 130V190 CAVOK 12/06 Q1011
 
LZSL - Sliac, Slovakia
Distance from station: SSE 168km
Updated: Thu, 23/11/2017 11:30 CET
Overcast
Overcast
 Wind from calm
Wind: Calm
Temperature: 4°C
Dew Point: 3°C
Humidity: 93%
Barometer: 1018 hPa
Clouds: Overcast
Visibility: 7 km
Cloud details: Overcast 122 m
2017/11/23 10:30 LZSL 231030Z 00000KT 7000 OVC004 04/03 Q1018
LZTT - Poprad/Tatry, Slovakia
Distance from station: SE 168km
Updated: Thu, 23/11/2017 11:30 CET
Fog, Overcast
Fog, Overcast
 Wind from varies
Wind: varies 2 km/h
Temperature: 1°C
Dew Point: 1°C
Humidity: 100%
Barometer: 1016 hPa
Summary: Fog
Clouds: Overcast
Visibility: 0 km
Cloud details: Overcast 61 m
2017/11/23 10:30 LZTT 231030Z VRB01KT 0200 R27/0400N FG OVC002 01/01 Q1016 BECMG 0500 FG
 
LKTB - Brno/Turany, Czech Republic
Distance from station: SW 170km
Updated: Thu, 23/11/2017 11:30 CET
Mist, Overcast
Mist, Overcast
 Wind from W
Wind: W 7 km/h
Temperature: 5°C
Wind Chill: 3°C
Dew Point: 4°C
Humidity: 93%
Barometer: 1015 hPa
Summary: Mist
Clouds: Overcast
Visibility: 5 km
Cloud details: Overcast 244 m
2017/11/23 10:30 LKTB 231030Z 26004KT 210V330 5000 BR OVC008 05/04 Q1015 NOSIG
LZPP - Piestany, Slovakia
Distance from station: SSW 171km
Updated: Thu, 23/11/2017 11:30 CET
Mostly Cloudy
Mostly Cloudy
 Wind from SE
Wind: SE 6 km/h
Temperature: 5°C
Dew Point: 4°C
Humidity: 93%
Barometer: 1016 hPa
Clouds: Mostly Cloudy
Visibility: 10 km
Cloud details: Few Clouds 152 m
Mostly Cloudy 366 m
2017/11/23 10:30 LZPP 231030Z 13003KT 090V260 9999 FEW005 BKN012 05/04 Q1016
 
EPLL - Lodz/Lublinek, Poland
Distance from station: NNE 191km
Updated: Thu, 23/11/2017 11:30 CET
Clear
Clear
 Wind from SSE
Wind: SSE 13 km/h
Temperature: 8°C
Wind Chill: 6°C
Dew Point: 5°C
Humidity: 82%
Barometer: 1012 hPa
Summary: Clear
Visibility: greater than 10 km
2017/11/23 10:30 EPLL 231030Z 15007KT CAVOK 08/05 Q1012
LKPD - Pardubice, Czech Republic
Distance from station: W 200km
Updated: Thu, 23/11/2017 11:00 CET
Clear
Clear
 Wind from ENE
Wind: ENE 6 km/h
Temperature: 7°C
Dew Point: 5°C
Humidity: 87%
Barometer: 1013 hPa
Summary: Clear
Visibility: greater than 10 km
2017/11/23 10:00 LKPD 231000Z 07003KT 360V100 CAVOK 07/05 Q1013 NOSIG RMK BLU BLU

Metar display script from Saratoga-Weather.org